createdAt,value
2023-01-08T00:01:06.355Z,22.20
2023-01-08T00:03:35.124Z,23.87
2023-01-08T00:06:05.928Z,24.90
2023-01-08T00:08:34.536Z,23.30
2023-01-08T00:11:02.555Z,25.33
2023-01-08T00:13:30.633Z,24.00
2023-01-08T00:15:58.483Z,22.70
2023-01-08T00:18:27.401Z,22.77
2023-01-08T00:20:55.224Z,25.00
2023-01-08T00:23:24.461Z,22.00
2023-01-08T00:25:52.618Z,24.43
2023-01-08T00:28:21.105Z,24.20
2023-01-08T00:30:49.189Z,22.40
2023-01-08T00:33:17.777Z,21.27
2023-01-08T00:35:45.704Z,21.83
2023-01-08T00:38:13.864Z,22.63
2023-01-08T00:40:43.249Z,19.50
2023-01-08T00:43:11.143Z,21.27
2023-01-08T00:45:39.228Z,18.60
2023-01-08T00:48:07.737Z,19.20
2023-01-08T00:50:35.564Z,18.83
2023-01-08T00:53:04.322Z,18.30
2023-01-08T00:55:32.352Z,16.23
2023-01-08T00:58:01.609Z,16.40
2023-01-08T01:00:29.750Z,15.40
2023-01-08T01:02:57.732Z,15.10
2023-01-08T01:05:25.804Z,13.77
2023-01-08T01:07:53.831Z,13.43
2023-01-08T01:10:21.821Z,14.10
2023-01-08T01:12:49.857Z,13.33
2023-01-08T01:15:19.833Z,12.00
2023-01-08T01:17:47.935Z,12.37
2023-01-08T01:20:17.318Z,11.77
2023-01-08T01:22:45.521Z,11.87
2023-01-08T01:25:13.475Z,10.87
2023-01-08T01:27:41.519Z,10.80
2023-01-08T01:30:10.267Z,10.80
2023-01-08T01:32:39.581Z,9.80
2023-01-08T01:35:08.365Z,9.37
2023-01-08T01:37:36.344Z,10.50
2023-01-08T01:40:04.842Z,9.73
2023-01-08T01:42:41.660Z,8.93
2023-01-08T01:45:17.426Z,9.40
2023-01-08T01:47:50.757Z,9.40
2023-01-08T01:50:21.738Z,8.80
2023-01-08T01:52:54.853Z,10.13
2023-01-08T01:55:22.891Z,9.43
2023-01-08T01:57:56.060Z,10.07
2023-01-08T02:00:24.443Z,9.17
2023-01-08T02:02:54.748Z,10.33
2023-01-08T02:05:23.549Z,9.57
2023-01-08T02:08:00.209Z,10.50
2023-01-08T02:10:35.725Z,9.00
2023-01-08T02:13:09.606Z,9.43
2023-01-08T02:15:48.595Z,8.60
2023-01-08T02:18:21.035Z,9.13
2023-01-08T02:20:55.569Z,8.83
2023-01-08T02:23:32.308Z,9.50
2023-01-08T02:26:13.467Z,7.70
2023-01-08T02:28:46.318Z,7.77
2023-01-08T02:31:15.706Z,8.23
2023-01-08T02:33:43.638Z,6.60
2023-01-08T02:36:39.172Z,7.87
2023-01-08T02:39:22.017Z,7.23
2023-01-08T02:42:07.403Z,7.03
2023-01-08T02:44:51.862Z,6.47
2023-01-08T02:47:27.186Z,6.10
2023-01-08T02:50:02.055Z,5.90
2023-01-08T02:52:32.660Z,6.63
2023-01-08T02:55:04.054Z,6.40
2023-01-08T02:57:35.087Z,4.77
2023-01-08T03:00:03.173Z,5.00
2023-01-08T03:02:34.294Z,5.00
2023-01-08T03:05:08.928Z,4.77
2023-01-08T03:07:37.294Z,4.37
2023-01-08T03:10:05.974Z,3.93
2023-01-08T03:12:44.837Z,4.83
2023-01-08T03:15:19.904Z,4.20
2023-01-08T03:17:51.725Z,4.00
2023-01-08T03:20:22.840Z,4.10
2023-01-08T03:22:52.940Z,4.50
2023-01-08T03:25:23.519Z,3.90
2023-01-08T03:27:58.945Z,4.13
2023-01-08T03:30:29.199Z,4.20
2023-01-08T03:33:00.028Z,3.53
2023-01-08T03:35:29.172Z,3.67
2023-01-08T03:38:01.862Z,4.10
2023-01-08T03:40:36.351Z,3.70
2023-01-08T03:43:05.652Z,4.00
2023-01-08T03:45:34.236Z,3.30
2023-01-08T03:48:04.873Z,4.17
2023-01-08T03:50:33.640Z,3.23
2023-01-08T03:53:01.908Z,3.50
2023-01-08T03:55:29.734Z,3.50
2023-01-08T03:57:58.295Z,3.00
2023-01-08T04:00:27.970Z,3.37
2023-01-08T04:02:55.859Z,3.43
2023-01-08T04:05:23.828Z,3.00
2023-01-08T04:07:51.823Z,2.83
2023-01-08T04:10:19.649Z,3.00
2023-01-08T04:12:47.547Z,3.37
2023-01-08T04:15:15.749Z,3.57
2023-01-08T04:17:45.014Z,2.93
2023-01-08T04:20:13.202Z,3.43
2023-01-08T04:22:41.173Z,3.40
2023-01-08T04:25:09.759Z,3.43
2023-01-08T04:27:37.808Z,3.10
2023-01-08T04:30:06.640Z,3.60
2023-01-08T04:32:34.499Z,3.23
2023-01-08T04:35:03.787Z,3.10
2023-01-08T04:37:31.723Z,3.17
2023-01-08T04:39:59.635Z,3.00
2023-01-08T04:42:27.525Z,3.20
2023-01-08T04:44:55.464Z,2.70
2023-01-08T04:47:23.286Z,2.63
2023-01-08T04:49:51.304Z,2.57
2023-01-08T04:52:20.653Z,2.90
2023-01-08T04:54:48.529Z,2.70
2023-01-08T04:57:16.442Z,2.80
2023-01-08T04:59:44.379Z,2.60
2023-01-08T05:02:12.295Z,2.33
2023-01-08T05:04:40.347Z,2.67
2023-01-08T05:07:08.864Z,2.60
2023-01-08T05:09:38.035Z,2.60
2023-01-08T05:12:06.464Z,2.93
2023-01-08T05:14:34.372Z,2.70
2023-01-08T05:17:02.238Z,2.63
2023-01-08T05:19:30.199Z,2.53
2023-01-08T05:21:58.343Z,2.53
2023-01-08T05:24:26.199Z,2.43
2023-01-08T05:26:55.463Z,2.43
2023-01-08T05:29:23.484Z,2.30
2023-01-08T05:31:51.301Z,2.30
2023-01-08T05:34:19.207Z,2.63
2023-01-08T05:36:47.114Z,2.33
2023-01-08T05:39:14.977Z,2.43
2023-01-08T05:41:43.023Z,2.50
2023-01-08T05:44:12.654Z,2.60
2023-01-08T05:46:40.502Z,2.90
2023-01-08T05:49:08.694Z,2.83
2023-01-08T05:51:36.620Z,2.70
2023-01-08T05:54:04.710Z,2.63
2023-01-08T05:56:32.639Z,2.80
2023-01-08T05:59:00.549Z,2.77
2023-01-08T06:01:29.803Z,2.83
2023-01-08T06:03:59.121Z,2.80
2023-01-08T06:06:27.138Z,2.93
2023-01-08T06:08:55.049Z,2.63
2023-01-08T06:11:23.015Z,2.50
2023-01-08T06:13:50.901Z,2.20
2023-01-08T06:16:20.972Z,2.27
2023-01-08T06:18:50.409Z,2.67
2023-01-08T06:21:18.482Z,2.77
2023-01-08T06:23:46.311Z,2.40
2023-01-08T06:26:14.269Z,3.23
2023-01-08T06:28:42.151Z,3.37
2023-01-08T06:31:10.185Z,3.33
2023-01-08T06:33:38.199Z,3.50
2023-01-08T06:36:08.349Z,3.80
2023-01-08T06:38:37.268Z,3.10
2023-01-08T06:41:06.449Z,3.40
2023-01-08T06:43:36.529Z,3.93
2023-01-08T06:46:08.991Z,3.70
2023-01-08T06:48:37.403Z,4.10
2023-01-08T06:51:07.463Z,4.07
2023-01-08T06:53:35.490Z,3.77
2023-01-08T06:56:04.518Z,4.10
2023-01-08T06:58:32.617Z,4.03
2023-01-08T07:01:00.603Z,3.80
2023-01-08T07:03:28.725Z,3.58
2023-01-08T07:05:57.006Z,4.17
2023-01-08T07:08:26.426Z,4.23
2023-01-08T07:10:54.823Z,3.50
2023-01-08T07:13:23.915Z,3.70
2023-01-08T07:15:51.916Z,3.60
2023-01-08T07:18:20.007Z,4.23
2023-01-08T07:20:49.496Z,4.37
2023-01-08T07:23:17.490Z,4.80
2023-01-08T07:25:47.470Z,4.10
2023-01-08T07:28:16.940Z,4.60
2023-01-08T07:30:44.918Z,4.20
2023-01-08T07:33:12.827Z,4.70
2023-01-08T07:35:40.754Z,4.97
2023-01-08T07:38:08.754Z,4.70
2023-01-08T07:40:39.167Z,4.27
2023-01-08T07:43:12.560Z,5.25
2023-01-08T07:45:40.664Z,5.90
2023-01-08T07:48:10.527Z,5.30
2023-01-08T07:50:41.443Z,5.60
2023-01-08T07:53:09.704Z,6.07
2023-01-08T07:55:37.516Z,6.33
2023-01-08T07:58:11.097Z,6.47
2023-01-08T08:00:41.886Z,6.87
2023-01-08T08:03:13.239Z,6.95
2023-01-08T08:05:41.254Z,7.43
2023-01-08T08:08:10.647Z,7.30
2023-01-08T08:10:38.928Z,7.20
2023-01-08T08:13:07.231Z,7.83
2023-01-08T08:15:37.699Z,7.73
2023-01-08T08:18:06.871Z,7.05
2023-01-08T08:20:34.946Z,7.68
2023-01-08T08:23:03.169Z,7.03
2023-01-08T08:25:31.400Z,7.70
2023-01-08T08:27:59.957Z,7.97
2023-01-08T08:30:29.504Z,7.50
2023-01-08T08:33:00.905Z,7.85
2023-01-08T08:35:29.142Z,7.38
2023-01-08T08:37:57.664Z,6.88
2023-01-08T08:40:26.720Z,6.50
2023-01-08T08:42:57.270Z,8.18
2023-01-08T08:45:25.314Z,7.45
2023-01-08T08:47:53.498Z,6.30
2023-01-08T08:50:23.321Z,6.30
2023-01-08T08:52:51.155Z,5.70
2023-01-08T08:55:19.351Z,5.45
2023-01-08T08:57:48.237Z,5.78
2023-01-08T09:00:17.279Z,5.30
2023-01-08T09:02:45.511Z,4.70
2023-01-08T09:05:13.616Z,5.05
2023-01-08T09:07:42.791Z,4.97
2023-01-08T09:10:11.140Z,4.72
2023-01-08T09:12:38.957Z,4.97
2023-01-08T09:15:07.749Z,6.45
2023-01-08T09:17:37.025Z,7.15
2023-01-08T09:20:05.669Z,6.85
2023-01-08T09:22:33.648Z,8.15
2023-01-08T09:25:03.002Z,10.07
2023-01-08T09:27:30.849Z,10.60
2023-01-08T09:29:58.621Z,11.55
2023-01-08T09:32:26.636Z,11.20
2023-01-08T09:34:54.429Z,13.80
2023-01-08T09:37:23.329Z,13.73
2023-01-08T09:40:01.542Z,13.23
2023-01-08T09:42:32.253Z,17.88
2023-01-08T09:45:03.791Z,16.38
2023-01-08T09:47:37.930Z,17.77
2023-01-08T09:50:09.220Z,17.33
2023-01-08T09:52:38.909Z,19.60
2023-01-08T09:55:14.440Z,20.00
2023-01-08T09:57:44.003Z,20.92
2023-01-08T10:00:17.528Z,21.52
2023-01-08T10:02:47.223Z,20.98
2023-01-08T10:05:16.944Z,22.35
2023-01-08T10:07:45.824Z,22.80
2023-01-08T10:10:19.876Z,21.70
2023-01-08T10:12:50.617Z,23.08
2023-01-08T10:15:20.597Z,24.48
2023-01-08T10:17:52.581Z,25.08
2023-01-08T10:20:22.479Z,22.30
2023-01-08T10:22:54.462Z,26.00
2023-01-08T10:25:23.859Z,23.73
2023-01-08T10:27:54.834Z,25.13
2023-01-08T10:30:25.396Z,24.77
2023-01-08T10:32:55.989Z,23.83
2023-01-08T10:35:34.134Z,23.77
2023-01-08T10:38:02.745Z,25.92
2023-01-08T10:40:37.903Z,22.60
2023-01-08T10:43:16.658Z,25.75
2023-01-08T10:45:46.687Z,25.88
2023-01-08T10:48:19.357Z,25.95
2023-01-08T10:50:47.953Z,24.42
2023-01-08T10:53:25.825Z,29.17
2023-01-08T10:56:00.754Z,26.63
2023-01-08T10:58:30.829Z,28.85
2023-01-08T11:01:11.298Z,26.75
2023-01-08T11:03:39.443Z,28.75
2023-01-08T11:06:15.165Z,26.85
2023-01-08T11:08:54.173Z,28.77
2023-01-08T11:11:23.168Z,29.20
2023-01-08T11:13:58.733Z,29.00
2023-01-08T11:16:35.285Z,31.00
2023-01-08T11:19:03.817Z,31.55
2023-01-08T11:21:33.233Z,31.67
2023-01-08T11:24:16.616Z,33.13
2023-01-08T11:26:49.481Z,29.48
2023-01-08T11:29:23.733Z,32.33
2023-01-08T11:31:57.218Z,33.03
2023-01-08T11:34:34.078Z,31.35
2023-01-08T11:37:10.397Z,32.28
2023-01-08T11:39:39.218Z,31.10
2023-01-08T11:42:28.500Z,32.15
2023-01-08T11:45:12.801Z,33.00
2023-01-08T11:47:57.946Z,31.45
2023-01-08T11:50:29.859Z,32.85
2023-01-08T11:53:11.476Z,33.45
2023-01-08T11:55:51.081Z,32.13
2023-01-08T11:58:28.216Z,32.58
2023-01-08T12:01:07.972Z,30.42
2023-01-08T12:03:41.890Z,33.00
2023-01-08T12:06:19.216Z,33.35
2023-01-08T12:08:56.038Z,34.05
2023-01-08T12:11:28.443Z,30.77
2023-01-08T12:14:20.573Z,33.83
2023-01-08T12:17:20.750Z,34.67
2023-01-08T12:20:01.083Z,33.78
2023-01-08T12:22:40.006Z,34.63
2023-01-08T12:25:24.232Z,34.10
2023-01-08T12:28:03.967Z,32.22
2023-01-08T12:30:45.605Z,35.53
2023-01-08T12:33:24.178Z,34.63
2023-01-08T12:35:56.083Z,32.40
2023-01-08T12:38:30.042Z,34.10
2023-01-08T12:41:01.997Z,36.17
2023-01-08T12:43:34.028Z,34.47
2023-01-08T12:46:04.830Z,34.55
2023-01-08T12:48:36.711Z,36.15
2023-01-08T12:51:08.833Z,35.67
2023-01-08T12:53:45.154Z,33.35
2023-01-08T12:56:20.693Z,35.05
2023-01-08T12:59:12.762Z,32.25
2023-01-08T13:01:52.182Z,33.58
2023-01-08T13:04:21.788Z,32.03
2023-01-08T13:06:56.423Z,31.58
2023-01-08T13:09:27.939Z,32.85
2023-01-08T13:11:58.416Z,34.85
2023-01-08T13:14:27.584Z,31.15
2023-01-08T13:17:05.265Z,33.03
2023-01-08T13:19:41.726Z,33.08
2023-01-08T13:22:24.629Z,34.05
2023-01-08T13:24:53.136Z,33.60
2023-01-08T13:27:30.766Z,32.88
2023-01-08T13:30:02.067Z,33.10
2023-01-08T13:32:44.230Z,32.25
2023-01-08T13:35:24.865Z,32.65
2023-01-08T13:37:54.594Z,30.88
2023-01-08T13:40:53.772Z,34.33
2023-01-08T13:43:23.921Z,33.25
2023-01-08T13:46:09.003Z,37.03
2023-01-08T13:48:40.565Z,34.08
2023-01-08T13:51:33.047Z,34.90
2023-01-08T13:54:15.019Z,35.90
2023-01-08T13:56:44.226Z,34.40
2023-01-08T13:59:21.724Z,32.45
2023-01-08T14:01:56.374Z,35.33
2023-01-08T14:04:25.245Z,37.35
2023-01-08T14:06:54.982Z,33.03
2023-01-08T14:09:24.834Z,33.47
2023-01-08T14:11:56.694Z,34.58
2023-01-08T14:14:25.722Z,35.40
2023-01-08T14:16:55.526Z,36.10
2023-01-08T14:19:25.936Z,32.72
2023-01-08T14:21:57.153Z,33.85
2023-01-08T14:24:27.054Z,36.28
2023-01-08T14:26:56.792Z,37.58
2023-01-08T14:29:29.856Z,36.70
2023-01-08T14:32:00.308Z,32.47
2023-01-08T14:34:31.990Z,36.90
2023-01-08T14:37:01.355Z,34.80
2023-01-08T14:39:35.440Z,36.22
2023-01-08T14:42:26.724Z,35.63
2023-01-08T14:44:56.337Z,35.83
2023-01-08T14:47:30.683Z,34.35
2023-01-08T14:49:58.915Z,33.35
2023-01-08T14:52:28.386Z,33.38
2023-01-08T14:55:01.465Z,32.28
2023-01-08T14:57:30.109Z,33.03
2023-01-08T14:59:59.393Z,35.10
2023-01-08T15:02:30.913Z,32.67
2023-01-08T15:05:03.528Z,29.05
2023-01-08T15:07:32.875Z,31.08
2023-01-08T15:10:02.732Z,33.83
2023-01-08T15:12:32.468Z,30.88
2023-01-08T15:15:11.217Z,30.63
2023-01-08T15:17:41.692Z,28.00
2023-01-08T15:20:18.579Z,31.83
2023-01-08T15:22:48.143Z,28.77
2023-01-08T15:25:18.903Z,29.92
2023-01-08T15:27:55.029Z,30.10
2023-01-08T15:30:30.012Z,29.55
2023-01-08T15:33:08.373Z,28.60
2023-01-08T15:35:36.266Z,27.80
2023-01-08T15:38:05.540Z,30.02
2023-01-08T15:40:33.475Z,28.85
2023-01-08T15:43:13.208Z,27.20
2023-01-08T15:45:43.579Z,28.27
2023-01-08T15:48:12.089Z,27.60
2023-01-08T15:50:42.027Z,27.33
2023-01-08T15:53:18.131Z,28.58
2023-01-08T15:55:47.114Z,27.95
2023-01-08T15:58:15.804Z,25.15
2023-01-08T16:00:45.430Z,24.10
2023-01-08T16:03:14.721Z,24.77
2023-01-08T16:05:42.913Z,26.33
2023-01-08T16:08:13.199Z,24.42
2023-01-08T16:10:41.135Z,21.73
2023-01-08T16:13:11.762Z,20.17
2023-01-08T16:15:40.388Z,22.30
2023-01-08T16:18:08.207Z,20.95
2023-01-08T16:20:36.218Z,21.58
2023-01-08T16:23:04.193Z,19.27
2023-01-08T16:25:33.598Z,20.77
2023-01-08T16:28:02.835Z,18.63
2023-01-08T16:30:30.750Z,18.85
2023-01-08T16:32:58.676Z,19.67
2023-01-08T16:35:26.583Z,20.15
2023-01-08T16:37:54.468Z,17.80
2023-01-08T16:40:22.406Z,19.33
2023-01-08T16:42:51.712Z,18.83
2023-01-08T16:45:19.683Z,20.33
2023-01-08T16:47:47.519Z,18.42
2023-01-08T16:50:15.553Z,21.52
2023-01-08T16:52:43.515Z,20.27
2023-01-08T16:55:11.965Z,21.20
2023-01-08T16:57:39.873Z,20.77
2023-01-08T17:00:10.714Z,20.25
2023-01-08T17:02:39.028Z,24.45
2023-01-08T17:05:07.861Z,22.35
2023-01-08T17:07:36.228Z,23.25
2023-01-08T17:10:04.413Z,27.25
2023-01-08T17:12:32.343Z,27.30
2023-01-08T17:15:00.247Z,28.13
2023-01-08T17:17:29.480Z,29.00
2023-01-08T17:19:57.439Z,27.33
2023-01-08T17:22:25.361Z,24.48
2023-01-08T17:24:53.221Z,26.50
2023-01-08T17:27:21.236Z,24.27
2023-01-08T17:29:49.217Z,26.38
2023-01-08T17:32:17.087Z,22.33
2023-01-08T17:34:46.360Z,21.13
2023-01-08T17:37:15.213Z,21.30
2023-01-08T17:39:43.856Z,20.30
2023-01-08T17:42:25.663Z,19.75
2023-01-08T17:44:54.036Z,20.30
2023-01-08T17:47:22.596Z,20.80
2023-01-08T17:49:52.569Z,20.13
2023-01-08T17:52:21.113Z,19.63
2023-01-08T17:54:50.054Z,19.75
2023-01-08T17:57:18.319Z,18.30
2023-01-08T17:59:47.064Z,16.25
2023-01-08T18:02:17.180Z,17.42
2023-01-08T18:04:46.253Z,16.83
2023-01-08T18:07:16.168Z,14.07
2023-01-08T18:09:44.870Z,15.63
2023-01-08T18:12:12.935Z,13.85
2023-01-08T18:14:41.643Z,14.30
2023-01-08T18:17:09.572Z,13.57
2023-01-08T18:19:37.610Z,13.43
2023-01-08T18:22:05.688Z,12.88
2023-01-08T18:24:35.741Z,13.27
2023-01-08T18:27:03.844Z,13.45
2023-01-08T18:29:32.073Z,12.38
2023-01-08T18:32:01.805Z,13.18
2023-01-08T18:34:29.707Z,13.77
2023-01-08T18:36:57.788Z,13.25
2023-01-08T18:39:26.616Z,11.15
2023-01-08T18:42:15.434Z,12.32
2023-01-08T18:44:43.275Z,12.32
2023-01-08T18:47:12.519Z,11.95
2023-01-08T18:49:40.538Z,12.10
2023-01-08T18:52:08.654Z,11.57
2023-01-08T18:54:36.474Z,11.48
2023-01-08T18:57:05.772Z,11.52
2023-01-08T18:59:33.828Z,11.88
2023-01-08T19:02:02.011Z,11.40
2023-01-08T19:04:29.994Z,11.20
2023-01-08T19:06:57.958Z,12.70
2023-01-08T19:09:25.839Z,11.15
2023-01-08T19:11:53.731Z,11.23
2023-01-08T19:14:23.008Z,11.05
2023-01-08T19:16:52.005Z,11.35
2023-01-08T19:19:20.741Z,11.70
2023-01-08T19:21:48.982Z,11.90
2023-01-08T19:24:16.974Z,11.00
2023-01-08T19:26:45.815Z,12.00
2023-01-08T19:29:13.987Z,10.73
2023-01-08T19:31:43.314Z,11.68
2023-01-08T19:34:11.965Z,11.30
2023-01-08T19:36:41.823Z,11.05
2023-01-08T19:39:11.561Z,10.88
2023-01-08T19:41:57.009Z,10.93
2023-01-08T19:44:24.991Z,10.45
2023-01-08T19:46:54.509Z,9.50
2023-01-08T19:49:23.685Z,10.50
2023-01-08T19:51:52.707Z,10.60
2023-01-08T19:54:23.709Z,10.10
2023-01-08T19:56:51.686Z,9.98
2023-01-08T19:59:20.109Z,9.38
2023-01-08T20:01:48.218Z,9.70
2023-01-08T20:04:17.661Z,9.50
2023-01-08T20:06:46.158Z,9.25
2023-01-08T20:09:14.015Z,9.57
2023-01-08T20:11:41.935Z,9.18
2023-01-08T20:14:09.811Z,9.30
2023-01-08T20:16:37.727Z,9.45
2023-01-08T20:19:05.776Z,9.57
2023-01-08T20:21:35.841Z,9.23
2023-01-08T20:24:09.400Z,9.57
2023-01-08T20:26:38.435Z,9.07
2023-01-08T20:29:06.740Z,8.70
2023-01-08T20:31:35.215Z,9.05
2023-01-08T20:34:05.220Z,8.82
2023-01-08T20:36:35.669Z,8.95
2023-01-08T20:39:06.906Z,9.60
2023-01-08T20:41:34.798Z,8.88
2023-01-08T20:44:05.481Z,9.85
2023-01-08T20:46:35.536Z,8.23
2023-01-08T20:49:05.505Z,8.57
2023-01-08T20:51:36.853Z,7.78
2023-01-08T20:54:07.140Z,8.90
2023-01-08T20:56:35.214Z,8.85
2023-01-08T20:59:03.943Z,8.55
2023-01-08T21:01:34.247Z,8.20
2023-01-08T21:04:03.738Z,9.25
2023-01-08T21:06:33.596Z,8.80
2023-01-08T21:09:07.698Z,8.80
2023-01-08T21:11:37.322Z,8.35
2023-01-08T21:14:07.966Z,9.02
2023-01-08T21:16:36.945Z,8.40
2023-01-08T21:19:05.146Z,8.30
2023-01-08T21:21:34.987Z,9.10
2023-01-08T21:24:07.301Z,8.55
2023-01-08T21:26:35.877Z,8.70
2023-01-08T21:29:06.063Z,8.07
2023-01-08T21:31:35.267Z,7.50
2023-01-08T21:34:04.774Z,7.78
2023-01-08T21:36:33.206Z,8.13
2023-01-08T21:39:02.744Z,7.30
2023-01-08T21:41:49.842Z,7.45
2023-01-08T21:44:37.287Z,8.13
2023-01-08T21:47:06.617Z,7.70
2023-01-08T21:49:35.964Z,8.80
2023-01-08T21:52:21.735Z,9.00
2023-01-08T21:54:49.713Z,8.77
2023-01-08T21:57:19.097Z,8.63
2023-01-08T21:59:50.848Z,9.30
2023-01-08T22:02:20.716Z,9.48
2023-01-08T22:04:49.111Z,9.40
2023-01-08T22:07:17.701Z,8.77
2023-01-08T22:09:45.705Z,9.00
2023-01-08T22:12:14.171Z,9.73
2023-01-08T22:14:43.515Z,9.05
2023-01-08T22:17:11.766Z,10.02
2023-01-08T22:19:40.129Z,9.50
2023-01-08T22:22:10.893Z,9.63
2023-01-08T22:24:39.522Z,9.35
2023-01-08T22:27:08.281Z,8.85
2023-01-08T22:29:36.444Z,9.38
2023-01-08T22:32:06.787Z,8.52
2023-01-08T22:34:35.437Z,8.15
2023-01-08T22:37:04.169Z,8.70
2023-01-08T22:39:32.354Z,7.90
2023-01-08T22:42:00.176Z,8.18
2023-01-08T22:44:28.115Z,8.23
2023-01-08T22:46:56.677Z,7.57
2023-01-08T22:49:25.944Z,7.97
2023-01-08T22:51:53.975Z,8.75
2023-01-08T22:54:21.990Z,8.15
2023-01-08T22:56:49.807Z,7.63
2023-01-08T22:59:17.691Z,7.53
2023-01-08T23:01:45.744Z,7.82
2023-01-08T23:04:15.286Z,7.30
2023-01-08T23:06:44.737Z,7.15
2023-01-08T23:09:12.884Z,7.70
2023-01-08T23:11:40.809Z,7.15
2023-01-08T23:14:08.789Z,7.47
2023-01-08T23:16:37.015Z,6.68
2023-01-08T23:19:04.966Z,6.45
2023-01-08T23:21:32.986Z,6.43
2023-01-08T23:24:02.258Z,6.72
2023-01-08T23:26:30.894Z,6.10
2023-01-08T23:28:59.500Z,6.03
2023-01-08T23:31:29.842Z,5.97
2023-01-08T23:33:58.998Z,5.97
2023-01-08T23:36:27.092Z,6.30
2023-01-08T23:38:56.751Z,6.15
2023-01-08T23:41:34.424Z,5.85
2023-01-08T23:44:05.111Z,6.00
2023-01-08T23:46:33.153Z,5.82
2023-01-08T23:49:01.968Z,6.40
2023-01-08T23:51:30.032Z,5.78
2023-01-08T23:53:58.105Z,5.88
2023-01-08T23:56:27.854Z,5.63
2023-01-08T23:58:55.847Z,6.05
